sensor_id;sensor_type;location;lat;lon;timestamp;pressure;altitude;pressure_sealevel;temperature;humidity
51617;BME280;37697;52.588;13.394;2022-12-18T00:03:41;102747.11;;;-5.81;87.36
51617;BME280;37697;52.588;13.394;2022-12-18T00:08:42;102741.69;;;-5.85;87.46
51617;BME280;37697;52.588;13.394;2022-12-18T00:13:44;102750.11;;;-5.94;87.12
51617;BME280;37697;52.588;13.394;2022-12-18T00:18:45;102755.33;;;-6.06;87.11
51617;BME280;37697;52.588;13.394;2022-12-18T00:23:48;102757.73;;;-6.13;87.23
51617;BME280;37697;52.588;13.394;2022-12-18T00:28:50;102758.93;;;-6.12;87.69
51617;BME280;37697;52.588;13.394;2022-12-18T00:33:54;102756.47;;;-6.19;87.42
51617;BME280;37697;52.588;13.394;2022-12-18T00:38:56;102754.91;;;-6.21;87.65
51617;BME280;37697;52.588;13.394;2022-12-18T00:43:58;102752.11;;;-6.30;87.45
51617;BME280;37697;52.588;13.394;2022-12-18T00:48:59;102754.66;;;-6.28;87.75
51617;BME280;37697;52.588;13.394;2022-12-18T00:54:00;102745.55;;;-6.31;87.75
51617;BME280;37697;52.588;13.394;2022-12-18T00:59:00;102746.88;;;-6.31;87.98
51617;BME280;37697;52.588;13.394;2022-12-18T01:04:02;102743.92;;;-6.28;88.14
51617;BME280;37697;52.588;13.394;2022-12-18T01:09:04;102746.86;;;-6.21;88.40
51617;BME280;37697;52.588;13.394;2022-12-18T01:14:05;102747.78;;;-6.17;88.32
51617;BME280;37697;52.588;13.394;2022-12-18T01:19:06;102760.41;;;-6.13;88.30
51617;BME280;37697;52.588;13.394;2022-12-18T01:24:07;102758.15;;;-6.08;88.23
51617;BME280;37697;52.588;13.394;2022-12-18T01:29:07;102772.95;;;-6.04;88.14
51617;BME280;37697;52.588;13.394;2022-12-18T01:34:08;102780.53;;;-6.03;87.86
51617;BME280;37697;52.588;13.394;2022-12-18T01:39:12;102780.34;;;-6.16;87.17
51617;BME280;37697;52.588;13.394;2022-12-18T01:49:59;102785.97;;;-6.29;87.39
51617;BME280;37697;52.588;13.394;2022-12-18T01:55:07;102787.61;;;-6.32;87.39
51617;BME280;37697;52.588;13.394;2022-12-18T02:00:11;102779.34;;;-6.34;87.39
51617;BME280;37697;52.588;13.394;2022-12-18T02:16:29;102788.31;;;-6.30;87.69
51617;BME280;37697;52.588;13.394;2022-12-18T02:21:51;102795.08;;;-6.25;87.92
51617;BME280;37697;52.588;13.394;2022-12-18T02:27:02;102792.03;;;-6.26;87.35
51617;BME280;37697;52.588;13.394;2022-12-18T02:32:09;102790.77;;;-6.32;87.23
51617;BME280;37697;52.588;13.394;2022-12-18T02:37:14;102799.26;;;-6.37;87.23
51617;BME280;37697;52.588;13.394;2022-12-18T02:42:17;102808.22;;;-6.42;87.28
51617;BME280;37697;52.588;13.394;2022-12-18T02:47:21;102802.72;;;-6.40;87.54
51617;BME280;37697;52.588;13.394;2022-12-18T02:57:49;102811.80;;;-6.37;87.45
51617;BME280;37697;52.588;13.394;2022-12-18T03:03:14;102815.48;;;-6.38;87.17
51617;BME280;37697;52.588;13.394;2022-12-18T03:08:31;102807.78;;;-6.47;86.92
51617;BME280;37697;52.588;13.394;2022-12-18T03:13:37;102814.69;;;-6.54;86.90
51617;BME280;37697;52.588;13.394;2022-12-18T03:18:52;102816.37;;;-6.63;86.96
51617;BME280;37697;52.588;13.394;2022-12-18T03:23:58;102810.78;;;-6.65;87.09
51617;BME280;37697;52.588;13.394;2022-12-18T03:29:12;102809.77;;;-6.74;86.74
51617;BME280;37697;52.588;13.394;2022-12-18T03:34:17;102814.86;;;-6.81;86.66
51617;BME280;37697;52.588;13.394;2022-12-18T03:39:24;102822.59;;;-6.88;86.80
51617;BME280;37697;52.588;13.394;2022-12-18T03:44:42;102817.50;;;-6.91;86.92
51617;BME280;37697;52.588;13.394;2022-12-18T03:55:07;102821.02;;;-6.90;87.18
51617;BME280;37697;52.588;13.394;2022-12-18T04:00:14;102816.61;;;-6.86;87.24
51617;BME280;37697;52.588;13.394;2022-12-18T04:05:18;102814.62;;;-6.83;87.21
51617;BME280;37697;52.588;13.394;2022-12-18T04:10:21;102825.48;;;-6.85;87.12
51617;BME280;37697;52.588;13.394;2022-12-18T04:15:22;102825.98;;;-6.86;87.17
51617;BME280;37697;52.588;13.394;2022-12-18T04:20:22;102833.66;;;-6.87;87.11
51617;BME280;37697;52.588;13.394;2022-12-18T04:25:23;102845.00;;;-6.89;87.05
51617;BME280;37697;52.588;13.394;2022-12-18T04:30:24;102838.92;;;-7.00;86.75
51617;BME280;37697;52.588;13.394;2022-12-18T04:35:25;102830.45;;;-7.06;86.87
51617;BME280;37697;52.588;13.394;2022-12-18T04:40:25;102842.11;;;-7.16;86.72
51617;BME280;37697;52.588;13.394;2022-12-18T04:45:26;102835.67;;;-7.19;86.97
51617;BME280;37697;52.588;13.394;2022-12-18T04:50:27;102837.64;;;-7.21;86.89
51617;BME280;37697;52.588;13.394;2022-12-18T04:55:28;102836.06;;;-7.24;87.14
51617;BME280;37697;52.588;13.394;2022-12-18T05:00:29;102835.93;;;-7.22;87.22
51617;BME280;37697;52.588;13.394;2022-12-18T05:05:30;102840.53;;;-7.19;87.30
51617;BME280;37697;52.588;13.394;2022-12-18T05:10:30;102853.21;;;-7.21;87.28
51617;BME280;37697;52.588;13.394;2022-12-18T05:15:32;102860.66;;;-7.25;87.19
51617;BME280;37697;52.588;13.394;2022-12-18T05:20:33;102868.07;;;-7.22;87.30
51617;BME280;37697;52.588;13.394;2022-12-18T05:25:33;102883.92;;;-7.25;87.33
51617;BME280;37697;52.588;13.394;2022-12-18T05:30:34;102887.45;;;-7.25;87.35
51617;BME280;37697;52.588;13.394;2022-12-18T05:35:35;102882.67;;;-7.21;87.38
51617;BME280;37697;52.588;13.394;2022-12-18T05:40:35;102893.12;;;-7.18;87.33
51617;BME280;37697;52.588;13.394;2022-12-18T05:45:38;102890.20;;;-7.20;87.25
51617;BME280;37697;52.588;13.394;2022-12-18T05:50:40;102895.61;;;-7.26;86.94
51617;BME280;37697;52.588;13.394;2022-12-18T05:55:42;102901.14;;;-7.33;87.07
51617;BME280;37697;52.588;13.394;2022-12-18T06:00:45;102893.36;;;-7.36;87.20
51617;BME280;37697;52.588;13.394;2022-12-18T06:05:46;102899.84;;;-7.39;87.15
51617;BME280;37697;52.588;13.394;2022-12-18T06:10:49;102901.94;;;-7.42;87.13
51617;BME280;37697;52.588;13.394;2022-12-18T06:15:52;102917.25;;;-7.39;87.46
51617;BME280;37697;52.588;13.394;2022-12-18T06:20:56;102913.10;;;-7.37;87.30
51617;BME280;37697;52.588;13.394;2022-12-18T06:25:58;102915.03;;;-7.39;87.33
51617;BME280;37697;52.588;13.394;2022-12-18T06:31:08;102916.88;;;-7.40;87.44
51617;BME280;37697;52.588;13.394;2022-12-18T06:36:12;102921.73;;;-7.39;87.56
51617;BME280;37697;52.588;13.394;2022-12-18T06:41:16;102938.37;;;-7.36;87.74
51617;BME280;37697;52.588;13.394;2022-12-18T06:46:18;102952.97;;;-7.29;87.91
51617;BME280;37697;52.588;13.394;2022-12-18T06:51:21;102961.05;;;-7.19;87.99
51617;BME280;37697;52.588;13.394;2022-12-18T06:56:23;102949.95;;;-7.14;87.88
51617;BME280;37697;52.588;13.394;2022-12-18T07:01:23;102966.95;;;-7.10;87.94
51617;BME280;37697;52.588;13.394;2022-12-18T07:06:25;102980.97;;;-7.12;87.67
51617;BME280;37697;52.588;13.394;2022-12-18T07:11:26;102963.81;;;-7.15;87.60
51617;BME280;37697;52.588;13.394;2022-12-18T07:16:27;102952.17;;;-7.19;87.67
51617;BME280;37697;52.588;13.394;2022-12-18T07:21:30;102956.32;;;-7.21;87.83
51617;BME280;37697;52.588;13.394;2022-12-18T07:26:31;102966.41;;;-7.19;87.83
51617;BME280;37697;52.588;13.394;2022-12-18T07:31:31;102975.20;;;-7.22;87.74
51617;BME280;37697;52.588;13.394;2022-12-18T07:36:32;102968.13;;;-7.24;87.76
51617;BME280;37697;52.588;13.394;2022-12-18T07:41:33;102973.77;;;-7.27;87.68
51617;BME280;37697;52.588;13.394;2022-12-18T07:46:34;102972.81;;;-7.31;87.69
51617;BME280;37697;52.588;13.394;2022-12-18T07:51:34;102977.58;;;-7.35;87.81
51617;BME280;37697;52.588;13.394;2022-12-18T07:56:35;102978.45;;;-7.40;87.94
51617;BME280;37697;52.588;13.394;2022-12-18T08:01:36;102968.58;;;-7.39;88.10
51617;BME280;37697;52.588;13.394;2022-12-18T08:06:36;102973.56;;;-7.35;88.22
51617;BME280;37697;52.588;13.394;2022-12-18T08:11:37;102977.66;;;-7.31;88.21
51617;BME280;37697;52.588;13.394;2022-12-18T08:16:38;102983.73;;;-7.23;88.24
51617;BME280;37697;52.588;13.394;2022-12-18T08:21:38;102975.41;;;-7.20;88.13
51617;BME280;37697;52.588;13.394;2022-12-18T08:26:39;102981.80;;;-7.11;88.25
51617;BME280;37697;52.588;13.394;2022-12-18T08:31:40;102992.59;;;-7.01;88.21
51617;BME280;37697;52.588;13.394;2022-12-18T08:36:41;102991.88;;;-7.03;87.82
51617;BME280;37697;52.588;13.394;2022-12-18T08:41:41;103001.22;;;-6.98;88.01
51617;BME280;37697;52.588;13.394;2022-12-18T08:46:43;103004.73;;;-6.97;87.85
51617;BME280;37697;52.588;13.394;2022-12-18T08:51:44;103006.95;;;-6.97;87.96
51617;BME280;37697;52.588;13.394;2022-12-18T08:56:45;103010.59;;;-6.98;87.79
51617;BME280;37697;52.588;13.394;2022-12-18T09:01:46;103020.05;;;-6.88;87.99
51617;BME280;37697;52.588;13.394;2022-12-18T09:06:47;103023.89;;;-6.81;87.97
51617;BME280;37697;52.588;13.394;2022-12-18T09:11:48;103025.69;;;-6.76;87.65
51617;BME280;37697;52.588;13.394;2022-12-18T09:16:49;103036.08;;;-6.82;87.14
51617;BME280;37697;52.588;13.394;2022-12-18T09:21:49;103047.77;;;-6.83;87.22
51617;BME280;37697;52.588;13.394;2022-12-18T09:26:53;103038.17;;;-6.86;87.10
51617;BME280;37697;52.588;13.394;2022-12-18T09:31:55;103038.39;;;-6.83;87.58
51617;BME280;37697;52.588;13.394;2022-12-18T09:36:56;103040.19;;;-6.78;87.50
51617;BME280;37697;52.588;13.394;2022-12-18T09:41:58;103042.23;;;-6.76;87.63
51617;BME280;37697;52.588;13.394;2022-12-18T09:52:23;103024.19;;;-6.74;87.54
51617;BME280;37697;52.588;13.394;2022-12-18T09:57:24;103012.45;;;-6.68;87.89
51617;BME280;37697;52.588;13.394;2022-12-18T10:02:26;103009.33;;;-6.57;87.87
51617;BME280;37697;52.588;13.394;2022-12-18T10:07:34;102994.64;;;-6.47;88.00
51617;BME280;37697;52.588;13.394;2022-12-18T10:18:32;102976.40;;;-6.29;88.17
51617;BME280;37697;52.588;13.394;2022-12-18T10:24:01;102975.67;;;-6.15;88.10
51617;BME280;37697;52.588;13.394;2022-12-18T10:29:17;102974.56;;;-6.03;88.19
51617;BME280;37697;52.588;13.394;2022-12-18T10:34:17;102973.28;;;-5.99;88.21
51617;BME280;37697;52.588;13.394;2022-12-18T10:39:23;102975.60;;;-5.90;88.43
51617;BME280;37697;52.588;13.394;2022-12-18T10:44:27;102960.43;;;-5.85;88.37
51617;BME280;37697;52.588;13.394;2022-12-18T10:49:33;102955.19;;;-5.77;88.52
51617;BME280;37697;52.588;13.394;2022-12-18T10:54:35;102953.50;;;-5.68;88.68
51617;BME280;37697;52.588;13.394;2022-12-18T10:59:49;102939.38;;;-5.61;88.47
51617;BME280;37697;52.588;13.394;2022-12-18T11:04:55;102933.94;;;-5.55;88.62
51617;BME280;37697;52.588;13.394;2022-12-18T11:10:00;102928.20;;;-5.46;88.86
51617;BME280;37697;52.588;13.394;2022-12-18T11:15:01;102932.06;;;-5.35;88.90
51617;BME280;37697;52.588;13.394;2022-12-18T11:20:19;102930.23;;;-5.35;88.59
51617;BME280;37697;52.588;13.394;2022-12-18T11:30:27;102930.06;;;-5.23;88.90
51617;BME280;37697;52.588;13.394;2022-12-18T11:35:40;102925.39;;;-5.21;88.81
51617;BME280;37697;52.588;13.394;2022-12-18T11:40:57;102931.31;;;-5.18;88.84
51617;BME280;37697;52.588;13.394;2022-12-18T11:46:00;102924.27;;;-5.19;88.78
51617;BME280;37697;52.588;13.394;2022-12-18T11:51:10;102937.84;;;-5.20;88.72
51617;BME280;37697;52.588;13.394;2022-12-18T11:56:34;102942.98;;;-5.13;88.94
51617;BME280;37697;52.588;13.394;2022-12-18T12:01:59;102955.49;;;-5.08;88.84
51617;BME280;37697;52.588;13.394;2022-12-18T12:07:24;102960.55;;;-5.05;88.84
51617;BME280;37697;52.588;13.394;2022-12-18T12:17:58;102969.76;;;-4.98;88.65
51617;BME280;37697;52.588;13.394;2022-12-18T12:28:45;102964.77;;;-4.92;88.44
51617;BME280;37697;52.588;13.394;2022-12-18T12:34:18;102974.77;;;-4.99;88.27
51617;BME280;37697;52.588;13.394;2022-12-18T12:39:32;102978.80;;;-4.99;88.37
51617;BME280;37697;52.588;13.394;2022-12-18T12:44:39;102986.17;;;-5.01;88.46
51617;BME280;37697;52.588;13.394;2022-12-18T12:49:42;102986.36;;;-4.98;88.33
51617;BME280;37697;52.588;13.394;2022-12-18T12:54:45;102980.89;;;-4.92;88.55
51617;BME280;37697;52.588;13.394;2022-12-18T12:59:49;102958.77;;;-4.90;88.38
51617;BME280;37697;52.588;13.394;2022-12-18T13:10:42;102922.07;;;-4.96;88.00
51617;BME280;37697;52.588;13.394;2022-12-18T13:36:44;102937.38;;;-5.06;88.13
51617;BME280;37697;52.588;13.394;2022-12-18T13:41:47;102940.95;;;-5.01;88.24
51617;BME280;37697;52.588;13.394;2022-12-18T13:46:51;102926.75;;;-4.98;88.22
51617;BME280;37697;52.588;13.394;2022-12-18T13:51:54;102912.81;;;-4.97;87.98
51617;BME280;37697;52.588;13.394;2022-12-18T13:56:55;102904.52;;;-5.00;88.10
51617;BME280;37697;52.588;13.394;2022-12-18T14:01:59;102900.59;;;-5.05;87.89
51617;BME280;37697;52.588;13.394;2022-12-18T14:07:04;102909.85;;;-5.04;88.15
51617;BME280;37697;52.588;13.394;2022-12-18T14:12:11;102895.12;;;-5.00;88.20
51617;BME280;37697;52.588;13.394;2022-12-18T14:17:43;102892.94;;;-5.00;88.15
51617;BME280;37697;52.588;13.394;2022-12-18T14:22:46;102888.45;;;-5.09;87.83
51617;BME280;37697;52.588;13.394;2022-12-18T14:27:59;102894.47;;;-5.11;87.95
51617;BME280;37697;52.588;13.394;2022-12-18T14:33:12;102874.00;;;-5.22;87.91
51617;BME280;37697;52.588;13.394;2022-12-18T14:38:36;102860.20;;;-5.23;88.21
51617;BME280;37697;52.588;13.394;2022-12-18T14:43:40;102853.13;;;-5.24;88.49
51617;BME280;37697;52.588;13.394;2022-12-18T14:48:44;102829.13;;;-5.26;88.41
51617;BME280;37697;52.588;13.394;2022-12-18T14:53:49;102849.75;;;-5.26;88.48
51617;BME280;37697;52.588;13.394;2022-12-18T14:59:00;102827.84;;;-5.31;88.32
51617;BME280;37697;52.588;13.394;2022-12-18T15:04:05;102820.25;;;-5.36;88.44
51617;BME280;37697;52.588;13.394;2022-12-18T15:09:24;102846.23;;;-5.37;88.62
51617;BME280;37697;52.588;13.394;2022-12-18T15:14:40;102864.77;;;-5.34;88.78
51617;BME280;37697;52.588;13.394;2022-12-18T15:19:42;102876.20;;;-5.31;88.88
51617;BME280;37697;52.588;13.394;2022-12-18T15:24:44;102873.38;;;-5.30;88.61
51617;BME280;37697;52.588;13.394;2022-12-18T15:29:59;102858.98;;;-5.39;88.52
51617;BME280;37697;52.588;13.394;2022-12-18T15:40:25;102862.03;;;-5.38;88.45
51617;BME280;37697;52.588;13.394;2022-12-18T15:45:26;102872.77;;;-5.38;88.62
51617;BME280;37697;52.588;13.394;2022-12-18T15:50:27;102873.61;;;-5.37;88.71
51617;BME280;37697;52.588;13.394;2022-12-18T15:55:27;102875.78;;;-5.37;88.72
51617;BME280;37697;52.588;13.394;2022-12-18T16:00:47;102875.36;;;-5.32;88.91
51617;BME280;37697;52.588;13.394;2022-12-18T16:05:48;102861.66;;;-5.39;88.14
51617;BME280;37697;52.588;13.394;2022-12-18T16:10:49;102858.88;;;-5.47;88.08
51617;BME280;37697;52.588;13.394;2022-12-18T16:15:50;102867.50;;;-5.53;87.87
51617;BME280;37697;52.588;13.394;2022-12-18T16:20:51;102855.84;;;-5.58;87.99
51617;BME280;37697;52.588;13.394;2022-12-18T16:25:52;102856.00;;;-5.59;88.36
51617;BME280;37697;52.588;13.394;2022-12-18T16:30:53;102841.71;;;-5.60;87.99
51617;BME280;37697;52.588;13.394;2022-12-18T16:35:54;102839.89;;;-5.59;88.19
51617;BME280;37697;52.588;13.394;2022-12-18T16:40:54;102845.27;;;-5.59;88.38
51617;BME280;37697;52.588;13.394;2022-12-18T16:46:13;102838.89;;;-5.58;88.33
51617;BME280;37697;52.588;13.394;2022-12-18T16:51:14;102834.21;;;-5.56;88.49
51617;BME280;37697;52.588;13.394;2022-12-18T16:56:15;102828.56;;;-5.53;88.34
51617;BME280;37697;52.588;13.394;2022-12-18T17:01:16;102851.94;;;-5.49;88.40
51617;BME280;37697;52.588;13.394;2022-12-18T17:06:17;102838.23;;;-5.46;88.41
51617;BME280;37697;52.588;13.394;2022-12-18T17:11:17;102836.65;;;-5.39;88.28
51617;BME280;37697;52.588;13.394;2022-12-18T17:16:19;102840.68;;;-5.39;88.11
51617;BME280;37697;52.588;13.394;2022-12-18T17:21:20;102839.11;;;-5.42;87.98
51617;BME280;37697;52.588;13.394;2022-12-18T17:26:21;102842.12;;;-5.45;87.85
51617;BME280;37697;52.588;13.394;2022-12-18T17:31:26;102836.37;;;-5.46;87.85
51617;BME280;37697;52.588;13.394;2022-12-18T17:36:29;102839.71;;;-5.48;87.77
51617;BME280;37697;52.588;13.394;2022-12-18T17:41:33;102829.90;;;-5.53;87.67
51617;BME280;37697;52.588;13.394;2022-12-18T17:46:35;102839.72;;;-5.58;87.74
51617;BME280;37697;52.588;13.394;2022-12-18T17:51:36;102843.92;;;-5.59;87.79
51617;BME280;37697;52.588;13.394;2022-12-18T17:56:38;102839.34;;;-5.63;87.71
51617;BME280;37697;52.588;13.394;2022-12-18T18:01:38;102829.86;;;-5.67;87.69
51617;BME280;37697;52.588;13.394;2022-12-18T18:06:39;102801.95;;;-5.70;87.68
51617;BME280;37697;52.588;13.394;2022-12-18T18:11:40;102803.61;;;-5.73;87.71
51617;BME280;37697;52.588;13.394;2022-12-18T18:17:00;102793.98;;;-5.76;87.70
51617;BME280;37697;52.588;13.394;2022-12-18T18:22:01;102784.55;;;-5.80;87.65
51617;BME280;37697;52.588;13.394;2022-12-18T18:27:02;102773.58;;;-5.82;87.67
51617;BME280;37697;52.588;13.394;2022-12-18T18:32:03;102773.39;;;-5.85;87.68
51617;BME280;37697;52.588;13.394;2022-12-18T18:37:04;102768.45;;;-5.90;87.62
51617;BME280;37697;52.588;13.394;2022-12-18T18:42:06;102761.41;;;-5.91;87.61
51617;BME280;37697;52.588;13.394;2022-12-18T18:47:08;102753.63;;;-5.94;87.57
51617;BME280;37697;52.588;13.394;2022-12-18T18:52:08;102745.42;;;-5.96;87.53
51617;BME280;37697;52.588;13.394;2022-12-18T18:57:10;102743.86;;;-5.99;87.49
51617;BME280;37697;52.588;13.394;2022-12-18T19:02:12;102721.98;;;-6.04;87.43
51617;BME280;37697;52.588;13.394;2022-12-18T19:07:14;102730.17;;;-6.05;87.46
51617;BME280;37697;52.588;13.394;2022-12-18T19:12:16;102706.34;;;-6.08;87.43
51617;BME280;37697;52.588;13.394;2022-12-18T19:17:35;102718.55;;;-6.10;87.38
51617;BME280;37697;52.588;13.394;2022-12-18T19:22:36;102699.08;;;-6.12;87.35
51617;BME280;37697;52.588;13.394;2022-12-18T19:27:37;102680.58;;;-6.15;87.29
51617;BME280;37697;52.588;13.394;2022-12-18T19:32:39;102679.73;;;-6.16;87.29
51617;BME280;37697;52.588;13.394;2022-12-18T19:37:40;102681.92;;;-6.15;87.27
51617;BME280;37697;52.588;13.394;2022-12-18T19:42:41;102685.11;;;-6.16;87.21
51617;BME280;37697;52.588;13.394;2022-12-18T19:47:42;102693.63;;;-6.16;87.32
51617;BME280;37697;52.588;13.394;2022-12-18T19:52:42;102691.16;;;-6.14;87.17
51617;BME280;37697;52.588;13.394;2022-12-18T19:57:44;102689.46;;;-6.15;87.00
51617;BME280;37697;52.588;13.394;2022-12-18T20:02:44;102680.07;;;-6.15;87.00
51617;BME280;37697;52.588;13.394;2022-12-18T20:07:45;102683.95;;;-6.13;87.01
51617;BME280;37697;52.588;13.394;2022-12-18T20:12:46;102675.41;;;-6.13;86.80
51617;BME280;37697;52.588;13.394;2022-12-18T20:17:47;102661.16;;;-6.13;86.67
51617;BME280;37697;52.588;13.394;2022-12-18T20:22:47;102650.70;;;-6.16;86.67
51617;BME280;37697;52.588;13.394;2022-12-18T20:27:48;102630.73;;;-6.18;86.62
51617;BME280;37697;52.588;13.394;2022-12-18T20:32:49;102635.48;;;-6.16;86.62
51617;BME280;37697;52.588;13.394;2022-12-18T20:37:50;102639.64;;;-6.17;86.40
51617;BME280;37697;52.588;13.394;2022-12-18T20:42:51;102636.96;;;-6.17;86.53
51617;BME280;37697;52.588;13.394;2022-12-18T20:47:54;102642.19;;;-6.16;86.57
51617;BME280;37697;52.588;13.394;2022-12-18T20:52:55;102632.15;;;-6.14;86.38
51617;BME280;37697;52.588;13.394;2022-12-18T20:57:55;102635.52;;;-6.12;86.28
51617;BME280;37697;52.588;13.394;2022-12-18T21:02:57;102617.58;;;-6.11;86.13
51617;BME280;37697;52.588;13.394;2022-12-18T21:07:58;102621.10;;;-6.11;86.17
51617;BME280;37697;52.588;13.394;2022-12-18T21:12:58;102635.24;;;-6.08;86.10
51617;BME280;37697;52.588;13.394;2022-12-18T21:17:59;102623.50;;;-6.07;86.12
51617;BME280;37697;52.588;13.394;2022-12-18T21:22:59;102617.30;;;-6.08;85.85
51617;BME280;37697;52.588;13.394;2022-12-18T21:28:01;102605.59;;;-6.07;85.79
51617;BME280;37697;52.588;13.394;2022-12-18T21:33:02;102606.92;;;-6.07;85.84
51617;BME280;37697;52.588;13.394;2022-12-18T21:38:03;102595.33;;;-6.07;85.87
51617;BME280;37697;52.588;13.394;2022-12-18T21:43:03;102599.86;;;-6.08;85.72
51617;BME280;37697;52.588;13.394;2022-12-18T21:48:22;102592.17;;;-6.07;85.71
51617;BME280;37697;52.588;13.394;2022-12-18T21:53:23;102602.39;;;-6.06;85.70
51617;BME280;37697;52.588;13.394;2022-12-18T21:58:24;102625.06;;;-6.05;85.60
51617;BME280;37697;52.588;13.394;2022-12-18T22:03:25;102612.48;;;-6.04;85.66
51617;BME280;37697;52.588;13.394;2022-12-18T22:08:25;102600.12;;;-6.01;85.56
51617;BME280;37697;52.588;13.394;2022-12-18T22:13:26;102592.77;;;-5.99;85.61
51617;BME280;37697;52.588;13.394;2022-12-18T22:18:27;102596.97;;;-5.97;85.48
51617;BME280;37697;52.588;13.394;2022-12-18T22:23:27;102583.92;;;-5.92;85.40
51617;BME280;37697;52.588;13.394;2022-12-18T22:28:28;102573.41;;;-5.89;85.37
51617;BME280;37697;52.588;13.394;2022-12-18T22:33:47;102563.87;;;-5.87;85.25
51617;BME280;37697;52.588;13.394;2022-12-18T22:38:48;102563.69;;;-5.86;85.04
51617;BME280;37697;52.588;13.394;2022-12-18T22:43:49;102549.80;;;-5.85;84.99
51617;BME280;37697;52.588;13.394;2022-12-18T22:48:49;102536.70;;;-5.84;85.05
51617;BME280;37697;52.588;13.394;2022-12-18T22:53:50;102531.19;;;-5.83;84.81
51617;BME280;37697;52.588;13.394;2022-12-18T22:58:51;102516.28;;;-5.81;84.51
51617;BME280;37697;52.588;13.394;2022-12-18T23:03:52;102508.08;;;-5.80;84.53
51617;BME280;37697;52.588;13.394;2022-12-18T23:08:55;102502.20;;;-5.79;84.37
51617;BME280;37697;52.588;13.394;2022-12-18T23:13:57;102486.79;;;-5.77;84.31
51617;BME280;37697;52.588;13.394;2022-12-18T23:18:57;102477.91;;;-5.78;84.48
51617;BME280;37697;52.588;13.394;2022-12-18T23:23:58;102468.36;;;-5.76;84.22
51617;BME280;37697;52.588;13.394;2022-12-18T23:29:00;102461.65;;;-5.76;84.03
51617;BME280;37697;52.588;13.394;2022-12-18T23:34:02;102450.26;;;-5.74;83.91
51617;BME280;37697;52.588;13.394;2022-12-18T23:39:04;102440.36;;;-5.74;83.83
51617;BME280;37697;52.588;13.394;2022-12-18T23:44:04;102449.12;;;-5.72;83.83
51617;BME280;37697;52.588;13.394;2022-12-18T23:49:05;102439.55;;;-5.70;83.61
51617;BME280;37697;52.588;13.394;2022-12-18T23:54:07;102435.22;;;-5.67;83.65
51617;BME280;37697;52.588;13.394;2022-12-18T23:59:08;102407.90;;;-5.66;83.56
